Terminal Aerodrome Forecast
Issued by NWS Buffalo, NY

Home | Current Version | Previous Version | Text Only | Print | Product List | Glossary On
Versions: 1 2 3 4 5 6 7 8 9 10 11 12 13 14 15 16 17 18 19 20 21 22 23 24 25 26
000
FTUS41 KBUF 261100
TAFART
TAF
KART 261133Z 2612/2712 05010KT P6SM BKN200
     FM261300 05006KT P6SM BKN150
     FM261800 04010KT P6SM OVC060
     FM262300 04012KT 4SM -SHSN OVC040
     FM270500 03010KT P6SM OVC050
     FM270900 03011KT P6SM OVC080=

USA.gov is the U.S. government's official web portal to all federal, state and local government web resources and services.